createdAt,value
2019-04-21T00:00:39.734Z,62.88
2019-04-21T00:03:19.402Z,63.44
2019-04-21T00:06:01.802Z,63.83
2019-04-21T00:11:06.243Z,64.39
2019-04-21T00:13:28.090Z,64.93
2019-04-21T00:15:48.828Z,65.70
2019-04-21T00:18:40.854Z,66.49
2019-04-21T00:21:13.346Z,66.49
2019-04-21T00:23:54.086Z,66.96
2019-04-21T00:26:23.809Z,67.43
2019-04-21T00:29:03.943Z,67.19
2019-04-21T00:31:27.291Z,67.19
2019-04-21T00:33:41.283Z,68.05
2019-04-21T00:36:14.873Z,68.10
2019-04-21T00:39:09.598Z,68.42
2019-04-21T00:41:29.410Z,69.14
2019-04-21T00:43:59.621Z,69.75
2019-04-21T00:46:30.772Z,69.85
2019-04-21T00:49:02.074Z,70.46
2019-04-21T00:51:49.833Z,71.18
2019-04-21T00:54:13.465Z,70.67
2019-04-21T00:56:45.974Z,70.52
2019-04-21T00:59:16.285Z,70.61
2019-04-21T01:01:38.036Z,70.40
2019-04-21T01:04:09.957Z,70.12
2019-04-21T01:06:43.714Z,70.52
2019-04-21T01:09:08.399Z,70.98
2019-04-21T01:11:47.288Z,71.55
2019-04-21T01:14:27.928Z,71.91
2019-04-21T01:16:48.602Z,71.87
2019-04-21T01:19:18.305Z,72.09
2019-04-21T01:21:26.940Z,72.78
2019-04-21T01:24:07.744Z,73.05
2019-04-21T01:26:40.969Z,73.33
2019-04-21T01:29:15.707Z,73.47
2019-04-21T01:31:45.972Z,73.54
2019-04-21T01:34:20.823Z,73.92
2019-04-21T01:36:46.079Z,74.98
2019-04-21T01:39:30.830Z,74.62
2019-04-21T01:41:57.406Z,74.74
2019-04-21T01:44:31.286Z,75.07
2019-04-21T01:46:52.027Z,75.27
2019-04-21T01:49:19.184Z,74.58
2019-04-21T01:52:08.896Z,73.98
2019-04-21T01:54:48.127Z,73.40
2019-04-21T01:57:23.769Z,73.12
2019-04-21T01:59:51.207Z,72.82
2019-04-21T02:02:30.757Z,72.88
2019-04-21T02:05:07.076Z,72.58
2019-04-21T02:07:27.455Z,73.26
2019-04-21T02:10:05.090Z,72.84
2019-04-21T02:12:31.823Z,73.11
2019-04-21T02:15:12.219Z,73.77
2019-04-21T02:17:35.452Z,73.66
2019-04-21T02:20:01.693Z,74.25
2019-04-21T02:22:46.457Z,74.37
2019-04-21T02:25:26.142Z,74.40
2019-04-21T02:27:47.435Z,74.53
2019-04-21T02:30:18.309Z,74.76
2019-04-21T02:33:02.371Z,75.05
2019-04-21T02:35:30.412Z,74.82
2019-04-21T02:45:30.443Z,74.94
2019-04-21T02:50:28.354Z,75.11
2019-04-21T03:00:36.534Z,76.45
2019-04-21T03:03:19.914Z,76.50
2019-04-21T03:05:58.689Z,77.21
2019-04-21T03:08:37.321Z,77.34
2019-04-21T03:11:04.892Z,77.66
2019-04-21T03:13:31.459Z,77.79
2019-04-21T03:18:36.400Z,78.05
2019-04-21T03:21:07.473Z,77.78
2019-04-21T03:23:41.744Z,78.46
2019-04-21T03:26:14.381Z,78.30
2019-04-21T03:36:38.245Z,80.39
2019-04-21T03:38:37.485Z,80.37
2019-04-21T03:46:08.312Z,80.76
2019-04-21T03:48:40.676Z,80.62
2019-04-21T03:51:15.892Z,80.67
2019-04-21T03:53:38.155Z,81.14
2019-04-21T03:56:25.427Z,81.30
2019-04-21T04:01:22.148Z,80.79
2019-04-21T04:04:30.574Z,81.44
2019-04-21T04:07:11.045Z,81.16
2019-04-21T04:09:54.026Z,81.82
2019-04-21T04:12:19.283Z,81.73
2019-04-21T04:15:02.394Z,82.30
2019-04-21T04:17:16.980Z,81.98
2019-04-21T04:30:04.285Z,80.65
2019-04-21T04:32:28.401Z,81.09
2019-04-21T04:35:03.266Z,81.25
2019-04-21T04:37:32.645Z,81.29
2019-04-21T04:40:43.011Z,81.07
2019-04-21T04:48:24.140Z,80.82
2019-04-21T04:50:49.302Z,81.63
2019-04-21T04:53:15.825Z,82.01
2019-04-21T04:58:35.554Z,82.51
2019-04-21T05:00:43.532Z,81.71
2019-04-21T05:03:18.953Z,81.00
2019-04-21T05:21:40.539Z,78.89
2019-04-21T05:23:51.224Z,78.25
2019-04-21T05:26:14.552Z,78.74
2019-04-21T05:28:47.353Z,78.82
2019-04-21T05:31:49.634Z,79.28
2019-04-21T05:34:17.140Z,78.79
2019-04-21T05:37:07.224Z,78.52
2019-04-21T05:39:47.997Z,78.37
2019-04-21T05:42:10.690Z,77.72
2019-04-21T05:44:59.834Z,76.92
2019-04-21T05:47:35.420Z,76.47
2019-04-21T05:49:55.668Z,77.17
2019-04-21T05:52:29.567Z,76.80
2019-04-21T05:55:10.555Z,75.69
2019-04-21T05:57:33.611Z,75.54
2019-04-21T06:00:12.383Z,75.42
2019-04-21T06:02:36.658Z,74.08
2019-04-21T06:05:25.657Z,74.01
2019-04-21T06:07:42.711Z,72.53
2019-04-21T06:10:08.915Z,72.95
2019-04-21T06:12:43.086Z,71.06
2019-04-21T06:15:16.649Z,70.71
2019-04-21T06:17:52.571Z,69.68
2019-04-21T06:20:15.401Z,70.21
2019-04-21T06:22:46.758Z,70.20
2019-04-21T06:25:44.643Z,69.78
2019-04-21T06:27:51.117Z,69.13
2019-04-21T06:30:22.379Z,68.42
2019-04-21T06:36:07.662Z,67.24
2019-04-21T06:38:19.631Z,66.16
2019-04-21T06:40:42.563Z,64.85
2019-04-21T06:43:29.606Z,62.74
2019-04-21T06:45:48.842Z,61.07
2019-04-21T06:48:18.585Z,60.36
2019-04-21T06:50:52.795Z,59.64
2019-04-21T06:53:21.636Z,57.42
2019-04-21T06:55:46.772Z,55.85
2019-04-21T06:58:18.103Z,53.75
2019-04-21T07:00:46.914Z,52.50
2019-04-21T07:05:58.954Z,50.04
2019-04-21T07:08:44.716Z,48.93
2019-04-21T07:10:59.472Z,48.04
2019-04-21T07:13:25.371Z,46.88
2019-04-21T07:15:58.495Z,46.58
2019-04-21T07:18:34.536Z,45.94
2019-04-21T07:21:03.166Z,45.92
2019-04-21T07:23:30.304Z,45.06
2019-04-21T07:26:02.766Z,44.51
2019-04-21T07:28:31.945Z,44.30
2019-04-21T07:31:03.443Z,43.30
2019-04-21T07:36:01.514Z,41.22
2019-04-21T07:38:36.606Z,42.40
2019-04-21T07:41:02.527Z,41.77
2019-04-21T07:43:34.350Z,41.10
2019-04-21T07:46:03.976Z,41.54
2019-04-21T07:48:45.671Z,40.58
2019-04-21T07:51:31.647Z,39.74
2019-04-21T07:54:28.711Z,39.46
2019-04-21T07:56:20.373Z,39.10
2019-04-21T07:59:02.082Z,38.67
2019-04-21T08:01:32.191Z,38.57
2019-04-21T08:04:15.255Z,38.25
2019-04-21T08:06:40.810Z,38.63
2019-04-21T08:09:08.974Z,38.07
2019-04-21T08:11:36.842Z,37.88
2019-04-21T08:14:13.808Z,37.88
2019-04-21T08:16:44.909Z,37.70
2019-04-21T08:19:12.929Z,36.67
2019-04-21T08:21:53.323Z,36.22
2019-04-21T08:24:14.510Z,35.55
2019-04-21T08:27:00.415Z,35.87
2019-04-21T08:29:28.506Z,35.33
2019-04-21T08:34:21.476Z,35.40
2019-04-21T08:37:04.048Z,34.44
2019-04-21T08:39:22.788Z,34.44
2019-04-21T08:41:49.621Z,34.26
2019-04-21T08:44:29.451Z,32.67
2019-04-21T08:46:59.147Z,32.47
2019-04-21T08:49:28.129Z,33.32
2019-04-21T08:52:03.833Z,32.39
2019-04-21T08:54:28.101Z,32.70
2019-04-21T08:57:24.363Z,31.94
2019-04-21T09:00:26.040Z,31.65
2019-04-21T09:03:01.706Z,32.45
2019-04-21T09:05:32.584Z,31.72
2019-04-21T09:07:57.217Z,30.70
2019-04-21T09:10:33.057Z,31.30
2019-04-21T09:13:03.166Z,30.71
2019-04-21T09:15:31.056Z,30.05
2019-04-21T09:17:57.964Z,31.21
2019-04-21T09:20:40.179Z,29.95
2019-04-21T09:23:11.788Z,30.12
2019-04-21T09:25:44.593Z,29.48
2019-04-21T09:28:08.057Z,29.99
2019-04-21T09:30:19.807Z,30.06
2019-04-21T09:32:53.120Z,28.96
2019-04-21T09:35:21.901Z,29.75
2019-04-21T09:37:58.856Z,29.11
2019-04-21T09:40:30.128Z,28.57
2019-04-21T09:42:59.289Z,27.97
2019-04-21T09:45:24.515Z,28.32
2019-04-21T09:48:01.028Z,28.35
2019-04-21T09:50:24.762Z,28.60
2019-04-21T09:52:59.770Z,28.58
2019-04-21T09:55:32.148Z,26.64
2019-04-21T09:58:08.729Z,24.81
2019-04-21T10:00:30.387Z,25.56
2019-04-21T10:03:06.056Z,26.69
2019-04-21T10:05:29.771Z,24.28
2019-04-21T10:08:01.056Z,24.26
2019-04-21T10:10:30.187Z,24.48
2019-04-21T10:13:00.616Z,23.94
2019-04-21T10:15:29.871Z,24.74
2019-04-21T10:18:02.714Z,25.34
2019-04-21T10:20:32.912Z,22.35
2019-04-21T10:23:02.938Z,22.84
2019-04-21T10:25:32.545Z,23.01
2019-04-21T10:28:03.323Z,22.75
2019-04-21T10:30:32.999Z,23.71
2019-04-21T10:33:02.225Z,22.20
2019-04-21T10:35:31.470Z,22.45
2019-04-21T10:38:12.906Z,22.46
2019-04-21T10:40:35.240Z,21.54
2019-04-21T10:43:03.911Z,21.71
2019-04-21T10:45:33.104Z,22.01
2019-04-21T10:48:03.055Z,20.72
2019-04-21T10:50:32.411Z,20.75
2019-04-21T10:53:09.105Z,20.59
2019-04-21T10:55:54.326Z,19.03
2019-04-21T10:58:11.818Z,19.77
2019-04-21T11:00:44.012Z,20.03
2019-04-21T11:03:31.031Z,20.04
2019-04-21T11:06:01.047Z,20.04
2019-04-21T11:08:35.692Z,20.27
2019-04-21T11:11:01.760Z,19.45
2019-04-21T11:13:31.026Z,19.01
2019-04-21T11:16:01.276Z,19.56
2019-04-21T11:18:31.717Z,17.59
2019-04-21T11:21:01.041Z,18.34
2019-04-21T11:23:31.292Z,17.98
2019-04-21T11:26:00.547Z,17.90
2019-04-21T11:28:31.233Z,18.57
2019-04-21T11:31:00.648Z,17.62
2019-04-21T11:33:31.290Z,18.16
2019-04-21T11:36:01.447Z,18.25
2019-04-21T11:39:19.299Z,16.78
2019-04-21T11:41:36.078Z,18.93
2019-04-21T11:44:05.480Z,18.34
2019-04-21T11:46:34.538Z,18.35
2019-04-21T11:49:04.121Z,18.33
2019-04-21T11:51:33.642Z,18.17
2019-04-21T11:54:02.913Z,17.44
2019-04-21T11:56:32.709Z,18.33
2019-04-21T11:59:03.755Z,18.56
2019-04-21T12:01:33.794Z,19.05
2019-04-21T12:04:03.401Z,19.46
2019-04-21T12:06:40.918Z,20.22
2019-04-21T12:09:06.945Z,18.68
2019-04-21T12:11:37.255Z,19.15
2019-04-21T12:14:07.998Z,19.37
2019-04-21T12:16:37.333Z,19.28
2019-04-21T12:19:07.206Z,18.73
2019-04-21T12:21:50.530Z,18.85
2019-04-21T12:24:07.395Z,19.08
2019-04-21T12:26:37.861Z,19.60
2019-04-21T12:29:08.072Z,19.44
2019-04-21T12:31:57.229Z,19.45
2019-04-21T12:34:28.093Z,18.40
2019-04-21T12:36:57.395Z,17.87
2019-04-21T12:39:27.113Z,18.30
2019-04-21T12:41:56.661Z,18.15
2019-04-21T12:44:25.858Z,18.26
2019-04-21T12:46:56.042Z,18.47
2019-04-21T12:49:25.638Z,18.93
2019-04-21T12:51:55.564Z,18.87
2019-04-21T12:54:25.900Z,18.63
2019-04-21T12:56:55.835Z,18.91
2019-04-21T12:59:29.689Z,19.08
2019-04-21T13:01:59.058Z,18.59
2019-04-21T13:04:29.378Z,18.77
2019-04-21T13:07:01.488Z,18.84
2019-04-21T13:09:32.087Z,18.79
2019-04-21T13:12:01.539Z,18.97
2019-04-21T13:14:31.581Z,18.91
2019-04-21T13:17:01.423Z,18.31
2019-04-21T13:19:31.532Z,18.77
2019-04-21T13:22:01.620Z,18.97
2019-04-21T13:24:31.794Z,19.35
2019-04-21T13:27:03.225Z,18.52
2019-04-21T13:29:32.294Z,18.66
2019-04-21T13:32:03.712Z,19.44
2019-04-21T13:34:33.684Z,19.62
2019-04-21T13:37:03.503Z,18.83
2019-04-21T13:40:09.648Z,19.46
2019-04-21T13:42:25.840Z,18.65
2019-04-21T13:44:48.816Z,18.77
2019-04-21T13:47:18.637Z,17.88
2019-04-21T13:49:47.960Z,17.23
2019-04-21T13:52:18.597Z,16.77
2019-04-21T13:54:47.788Z,16.28
2019-04-21T13:57:17.005Z,16.18
2019-04-21T13:59:46.431Z,16.02
2019-04-21T14:02:18.260Z,16.60
2019-04-21T14:04:49.552Z,16.23
2019-04-21T14:07:20.478Z,16.58
2019-04-21T14:09:56.049Z,16.09
2019-04-21T14:12:21.267Z,16.19
2019-04-21T14:14:50.418Z,15.32
2019-04-21T14:17:19.482Z,15.79
2019-04-21T14:19:48.996Z,15.20
2019-04-21T14:22:20.107Z,15.09
2019-04-21T14:24:49.908Z,15.77
2019-04-21T14:27:20.413Z,15.84
2019-04-21T14:29:53.424Z,15.80
2019-04-21T14:32:24.177Z,16.24
2019-04-21T14:34:54.058Z,16.28
2019-04-21T14:37:24.722Z,16.53
2019-04-21T14:40:01.303Z,16.12
2019-04-21T14:42:26.138Z,15.84
2019-04-21T14:44:56.826Z,16.43
2019-04-21T14:47:42.110Z,16.65
2019-04-21T14:50:39.995Z,16.77
2019-04-21T14:53:34.012Z,15.42
2019-04-21T14:56:03.761Z,15.52
2019-04-21T14:58:33.002Z,15.61
2019-04-21T15:01:06.010Z,15.86
2019-04-21T15:03:37.893Z,16.32
2019-04-21T15:06:07.515Z,16.52
2019-04-21T15:08:37.414Z,18.36
2019-04-21T15:11:07.074Z,18.41
2019-04-21T15:13:37.820Z,17.94
2019-04-21T15:16:07.133Z,18.03
2019-04-21T15:18:36.824Z,18.87
2019-04-21T15:21:07.638Z,17.78
2019-04-21T15:23:38.074Z,16.58
2019-04-21T15:26:08.318Z,17.48
2019-04-21T15:28:39.216Z,17.28
2019-04-21T15:31:12.654Z,16.90
2019-04-21T15:33:41.120Z,16.81
2019-04-21T15:36:11.233Z,17.81
2019-04-21T15:38:40.578Z,19.05
2019-04-21T15:41:10.865Z,19.06
2019-04-21T15:43:40.592Z,20.03
2019-04-21T15:46:10.961Z,20.06
2019-04-21T15:48:41.206Z,19.85
2019-04-21T15:51:11.130Z,20.24
2019-04-21T15:53:41.778Z,20.41
2019-04-21T15:56:22.644Z,20.71
2019-04-21T15:59:01.036Z,20.29
2019-04-21T16:01:36.477Z,20.62
2019-04-21T16:04:06.582Z,21.13
2019-04-21T16:06:37.421Z,21.52
2019-04-21T16:09:15.024Z,21.45
2019-04-21T16:11:41.940Z,21.20
2019-04-21T16:14:11.264Z,21.70
2019-04-21T16:16:41.214Z,21.33
2019-04-21T16:19:10.331Z,20.83
2019-04-21T16:21:42.510Z,20.73
2019-04-21T16:24:12.048Z,21.37
2019-04-21T16:26:42.640Z,21.51
2019-04-21T16:29:13.152Z,21.68
2019-04-21T16:31:42.736Z,21.41
2019-04-21T16:34:13.655Z,21.32
2019-04-21T16:36:45.584Z,21.51
2019-04-21T16:39:15.585Z,21.75
2019-04-21T16:41:44.776Z,21.38
2019-04-21T16:44:14.075Z,21.26
2019-04-21T16:46:43.468Z,21.58
2019-04-21T16:49:13.717Z,21.83
2019-04-21T16:51:44.220Z,21.67
2019-04-21T16:54:22.038Z,22.02
2019-04-21T16:57:01.858Z,21.65
2019-04-21T16:59:40.549Z,21.49
2019-04-21T17:02:10.405Z,21.84
2019-04-21T17:04:40.271Z,22.22
2019-04-21T17:07:09.582Z,22.38
2019-04-21T17:09:38.957Z,22.40
2019-04-21T17:12:11.941Z,22.53
2019-04-21T17:14:53.651Z,22.06
2019-04-21T17:17:32.437Z,22.57
2019-04-21T17:19:46.890Z,22.58
2019-04-21T17:22:13.736Z,22.10
2019-04-21T17:24:44.262Z,22.48
2019-04-21T17:27:15.287Z,22.46
2019-04-21T17:29:46.042Z,22.77
2019-04-21T17:32:16.436Z,22.76
2019-04-21T17:34:45.916Z,23.20
2019-04-21T17:37:15.263Z,22.78
2019-04-21T17:39:45.084Z,23.42
2019-04-21T17:42:24.211Z,23.57
2019-04-21T17:44:45.498Z,23.83
2019-04-21T17:47:22.509Z,23.80
2019-04-21T17:49:48.716Z,23.90
2019-04-21T17:52:41.396Z,23.92
2019-04-21T17:55:25.055Z,24.15
2019-04-21T17:58:03.490Z,24.30
2019-04-21T18:00:57.727Z,24.70
2019-04-21T18:03:18.498Z,24.54
2019-04-21T18:05:42.559Z,25.04
2019-04-21T18:08:14.016Z,25.03
2019-04-21T18:10:42.246Z,25.02
2019-04-21T18:13:04.264Z,25.12
2019-04-21T18:15:40.295Z,25.28
2019-04-21T18:17:58.941Z,25.22
2019-04-21T18:20:32.148Z,25.28
2019-04-21T18:23:39.682Z,25.27
2019-04-21T18:26:07.722Z,25.45
2019-04-21T18:28:34.597Z,25.90
2019-04-21T18:31:07.574Z,26.04
2019-04-21T18:33:42.246Z,26.31
2019-04-21T18:36:31.983Z,26.80
2019-04-21T18:39:18.241Z,27.50
2019-04-21T18:41:36.535Z,28.14
